sensor_id;sensor_type;location;lat;lon;timestamp;P1;durP1;ratioP1;P2;durP2;ratioP2
46363;SDS011;32071;49.036;9.344;2023-05-07T00:01:49;2.70;;;2.50;;
46363;SDS011;32071;49.036;9.344;2023-05-07T00:04:15;3.30;;;2.90;;
46363;SDS011;32071;49.036;9.344;2023-05-07T00:06:40;3.20;;;2.83;;
46363;SDS011;32071;49.036;9.344;2023-05-07T00:09:06;2.97;;;2.67;;
46363;SDS011;32071;49.036;9.344;2023-05-07T00:11:32;3.13;;;2.80;;
46363;SDS011;32071;49.036;9.344;2023-05-07T00:13:58;9.03;;;2.93;;
46363;SDS011;32071;49.036;9.344;2023-05-07T00:16:24;3.53;;;2.80;;
46363;SDS011;32071;49.036;9.344;2023-05-07T00:18:50;6.83;;;2.87;;
46363;SDS011;32071;49.036;9.344;2023-05-07T00:21:16;4.30;;;3.07;;
46363;SDS011;32071;49.036;9.344;2023-05-07T00:23:41;3.30;;;2.67;;
46363;SDS011;32071;49.036;9.344;2023-05-07T00:26:07;3.33;;;3.13;;
46363;SDS011;32071;49.036;9.344;2023-05-07T00:28:32;4.03;;;3.43;;
46363;SDS011;32071;49.036;9.344;2023-05-07T00:30:58;3.40;;;3.03;;
46363;SDS011;32071;49.036;9.344;2023-05-07T00:33:23;3.30;;;3.00;;
46363;SDS011;32071;49.036;9.344;2023-05-07T00:35:51;4.10;;;3.00;;
46363;SDS011;32071;49.036;9.344;2023-05-07T00:38:17;3.80;;;3.07;;
46363;SDS011;32071;49.036;9.344;2023-05-07T00:40:42;4.23;;;3.20;;
46363;SDS011;32071;49.036;9.344;2023-05-07T00:43:08;3.37;;;2.50;;
46363;SDS011;32071;49.036;9.344;2023-05-07T00:45:33;4.00;;;3.17;;
46363;SDS011;32071;49.036;9.344;2023-05-07T00:48:00;3.70;;;2.80;;
46363;SDS011;32071;49.036;9.344;2023-05-07T00:50:29;6.03;;;3.07;;
46363;SDS011;32071;49.036;9.344;2023-05-07T00:52:55;6.10;;;3.13;;
46363;SDS011;32071;49.036;9.344;2023-05-07T00:55:22;2.60;;;2.40;;
46363;SDS011;32071;49.036;9.344;2023-05-07T00:57:48;3.63;;;2.87;;
46363;SDS011;32071;49.036;9.344;2023-05-07T01:00:15;4.50;;;2.57;;
46363;SDS011;32071;49.036;9.344;2023-05-07T01:02:42;3.00;;;2.70;;
46363;SDS011;32071;49.036;9.344;2023-05-07T01:05:09;3.20;;;2.73;;
46363;SDS011;32071;49.036;9.344;2023-05-07T01:07:37;6.60;;;3.07;;
46363;SDS011;32071;49.036;9.344;2023-05-07T01:10:05;3.33;;;3.03;;
46363;SDS011;32071;49.036;9.344;2023-05-07T01:12:32;3.03;;;2.73;;
46363;SDS011;32071;49.036;9.344;2023-05-07T01:14:58;3.20;;;2.83;;
46363;SDS011;32071;49.036;9.344;2023-05-07T01:17:24;3.87;;;3.00;;
46363;SDS011;32071;49.036;9.344;2023-05-07T01:19:50;4.40;;;3.73;;
46363;SDS011;32071;49.036;9.344;2023-05-07T01:24:57;2.83;;;2.57;;
46363;SDS011;32071;49.036;9.344;2023-05-07T01:27:24;7.20;;;3.37;;
46363;SDS011;32071;49.036;9.344;2023-05-07T01:29:50;3.93;;;3.10;;
46363;SDS011;32071;49.036;9.344;2023-05-07T01:32:16;3.40;;;3.10;;
46363;SDS011;32071;49.036;9.344;2023-05-07T01:34:46;2.90;;;2.70;;
46363;SDS011;32071;49.036;9.344;2023-05-07T01:37:14;3.60;;;2.90;;
46363;SDS011;32071;49.036;9.344;2023-05-07T01:39:40;3.03;;;2.83;;
46363;SDS011;32071;49.036;9.344;2023-05-07T01:42:07;4.13;;;2.77;;
46363;SDS011;32071;49.036;9.344;2023-05-07T01:44:33;2.40;;;2.20;;
46363;SDS011;32071;49.036;9.344;2023-05-07T01:46:59;3.10;;;2.80;;
46363;SDS011;32071;49.036;9.344;2023-05-07T01:49:25;3.47;;;3.00;;
46363;SDS011;32071;49.036;9.344;2023-05-07T01:51:51;4.20;;;3.00;;
46363;SDS011;32071;49.036;9.344;2023-05-07T01:54:17;4.87;;;2.63;;
46363;SDS011;32071;49.036;9.344;2023-05-07T01:56:43;4.83;;;3.20;;
46363;SDS011;32071;49.036;9.344;2023-05-07T01:59:08;3.30;;;3.00;;
46363;SDS011;32071;49.036;9.344;2023-05-07T02:01:34;3.20;;;2.70;;
46363;SDS011;32071;49.036;9.344;2023-05-07T02:03:59;4.83;;;3.03;;
46363;SDS011;32071;49.036;9.344;2023-05-07T02:06:25;2.87;;;2.60;;
46363;SDS011;32071;49.036;9.344;2023-05-07T02:08:50;3.43;;;2.40;;
46363;SDS011;32071;49.036;9.344;2023-05-07T02:11:16;3.37;;;3.07;;
46363;SDS011;32071;49.036;9.344;2023-05-07T02:13:41;7.90;;;3.10;;
46363;SDS011;32071;49.036;9.344;2023-05-07T02:16:07;2.93;;;2.73;;
46363;SDS011;32071;49.036;9.344;2023-05-07T02:18:33;4.63;;;3.10;;
46363;SDS011;32071;49.036;9.344;2023-05-07T02:20:58;4.60;;;3.77;;
46363;SDS011;32071;49.036;9.344;2023-05-07T02:23:24;5.57;;;4.50;;
46363;SDS011;32071;49.036;9.344;2023-05-07T02:25:49;5.20;;;4.70;;
46363;SDS011;32071;49.036;9.344;2023-05-07T02:28:15;6.17;;;4.63;;
46363;SDS011;32071;49.036;9.344;2023-05-07T02:30:41;5.17;;;4.67;;
46363;SDS011;32071;49.036;9.344;2023-05-07T02:33:06;4.50;;;4.10;;
46363;SDS011;32071;49.036;9.344;2023-05-07T02:35:33;6.70;;;4.20;;
46363;SDS011;32071;49.036;9.344;2023-05-07T02:37:59;5.33;;;4.80;;
46363;SDS011;32071;49.036;9.344;2023-05-07T02:40:24;5.30;;;4.50;;
46363;SDS011;32071;49.036;9.344;2023-05-07T02:42:50;6.50;;;5.33;;
46363;SDS011;32071;49.036;9.344;2023-05-07T02:45:15;4.20;;;3.80;;
46363;SDS011;32071;49.036;9.344;2023-05-07T02:47:41;5.00;;;4.23;;
46363;SDS011;32071;49.036;9.344;2023-05-07T02:50:07;4.83;;;4.33;;
46363;SDS011;32071;49.036;9.344;2023-05-07T02:52:32;4.00;;;3.70;;
46363;SDS011;32071;49.036;9.344;2023-05-07T02:54:58;4.53;;;4.17;;
46363;SDS011;32071;49.036;9.344;2023-05-07T02:57:23;3.90;;;3.57;;
46363;SDS011;32071;49.036;9.344;2023-05-07T02:59:49;4.90;;;3.67;;
46363;SDS011;32071;49.036;9.344;2023-05-07T03:02:15;4.80;;;4.40;;
46363;SDS011;32071;49.036;9.344;2023-05-07T03:04:41;12.50;;;4.00;;
46363;SDS011;32071;49.036;9.344;2023-05-07T03:07:07;5.63;;;4.23;;
46363;SDS011;32071;49.036;9.344;2023-05-07T03:09:32;4.73;;;4.23;;
46363;SDS011;32071;49.036;9.344;2023-05-07T03:11:58;4.90;;;4.27;;
46363;SDS011;32071;49.036;9.344;2023-05-07T03:14:23;4.80;;;4.00;;
46363;SDS011;32071;49.036;9.344;2023-05-07T03:16:49;4.80;;;4.30;;
46363;SDS011;32071;49.036;9.344;2023-05-07T03:19:15;6.33;;;5.03;;
46363;SDS011;32071;49.036;9.344;2023-05-07T03:21:40;5.70;;;3.90;;
46363;SDS011;32071;49.036;9.344;2023-05-07T03:24:06;3.93;;;3.53;;
46363;SDS011;32071;49.036;9.344;2023-05-07T03:26:32;5.30;;;4.10;;
46363;SDS011;32071;49.036;9.344;2023-05-07T03:28:57;6.13;;;4.87;;
46363;SDS011;32071;49.036;9.344;2023-05-07T03:31:23;9.60;;;7.10;;
46363;SDS011;32071;49.036;9.344;2023-05-07T03:33:50;8.77;;;7.07;;
46363;SDS011;32071;49.036;9.344;2023-05-07T03:36:20;16.10;;;11.50;;
46363;SDS011;32071;49.036;9.344;2023-05-07T03:38:47;15.93;;;10.30;;
46363;SDS011;32071;49.036;9.344;2023-05-07T03:41:13;9.03;;;7.40;;
46363;SDS011;32071;49.036;9.344;2023-05-07T03:43:39;10.17;;;6.60;;
46363;SDS011;32071;49.036;9.344;2023-05-07T03:46:04;7.70;;;5.90;;
46363;SDS011;32071;49.036;9.344;2023-05-07T03:48:30;6.10;;;5.30;;
46363;SDS011;32071;49.036;9.344;2023-05-07T03:50:56;5.43;;;4.70;;
46363;SDS011;32071;49.036;9.344;2023-05-07T03:53:22;7.03;;;4.50;;
46363;SDS011;32071;49.036;9.344;2023-05-07T03:55:48;4.50;;;3.80;;
46363;SDS011;32071;49.036;9.344;2023-05-07T03:58:14;5.63;;;3.90;;
46363;SDS011;32071;49.036;9.344;2023-05-07T04:00:40;3.83;;;3.43;;
46363;SDS011;32071;49.036;9.344;2023-05-07T04:03:06;6.37;;;4.40;;
46363;SDS011;32071;49.036;9.344;2023-05-07T04:05:31;7.53;;;3.97;;
46363;SDS011;32071;49.036;9.344;2023-05-07T04:08:00;3.20;;;2.90;;
46363;SDS011;32071;49.036;9.344;2023-05-07T04:10:27;5.63;;;3.40;;
46363;SDS011;32071;49.036;9.344;2023-05-07T04:12:54;4.33;;;3.13;;
46363;SDS011;32071;49.036;9.344;2023-05-07T04:15:19;4.13;;;3.10;;
46363;SDS011;32071;49.036;9.344;2023-05-07T04:17:45;4.10;;;3.70;;
46363;SDS011;32071;49.036;9.344;2023-05-07T04:20:13;3.63;;;3.23;;
46363;SDS011;32071;49.036;9.344;2023-05-07T04:22:40;3.60;;;3.30;;
46363;SDS011;32071;49.036;9.344;2023-05-07T04:25:06;4.03;;;3.67;;
46363;SDS011;32071;49.036;9.344;2023-05-07T04:27:34;5.60;;;4.53;;
46363;SDS011;32071;49.036;9.344;2023-05-07T04:29:59;3.73;;;3.30;;
46363;SDS011;32071;49.036;9.344;2023-05-07T04:32:25;9.30;;;3.90;;
46363;SDS011;32071;49.036;9.344;2023-05-07T04:34:51;5.33;;;4.50;;
46363;SDS011;32071;49.036;9.344;2023-05-07T04:37:17;4.00;;;3.70;;
46363;SDS011;32071;49.036;9.344;2023-05-07T04:39:43;4.50;;;3.80;;
46363;SDS011;32071;49.036;9.344;2023-05-07T04:42:08;5.73;;;4.43;;
46363;SDS011;32071;49.036;9.344;2023-05-07T04:44:35;5.23;;;4.20;;
46363;SDS011;32071;49.036;9.344;2023-05-07T04:47:02;4.47;;;4.07;;
46363;SDS011;32071;49.036;9.344;2023-05-07T04:49:27;10.00;;;4.10;;
46363;SDS011;32071;49.036;9.344;2023-05-07T04:51:53;3.30;;;3.00;;
46363;SDS011;32071;49.036;9.344;2023-05-07T04:54:18;3.93;;;3.53;;
46363;SDS011;32071;49.036;9.344;2023-05-07T04:56:44;5.37;;;3.60;;
46363;SDS011;32071;49.036;9.344;2023-05-07T04:59:11;4.03;;;3.70;;
46363;SDS011;32071;49.036;9.344;2023-05-07T05:01:37;4.60;;;4.10;;
46363;SDS011;32071;49.036;9.344;2023-05-07T05:04:02;5.30;;;4.00;;
46363;SDS011;32071;49.036;9.344;2023-05-07T05:06:28;4.40;;;4.00;;
46363;SDS011;32071;49.036;9.344;2023-05-07T05:08:54;5.10;;;4.60;;
46363;SDS011;32071;49.036;9.344;2023-05-07T05:11:20;5.63;;;4.47;;
46363;SDS011;32071;49.036;9.344;2023-05-07T05:13:46;5.47;;;4.30;;
46363;SDS011;32071;49.036;9.344;2023-05-07T05:16:13;10.70;;;6.50;;
46363;SDS011;32071;49.036;9.344;2023-05-07T05:18:39;5.17;;;4.60;;
46363;SDS011;32071;49.036;9.344;2023-05-07T05:21:05;6.07;;;4.00;;
46363;SDS011;32071;49.036;9.344;2023-05-07T05:23:31;5.20;;;4.60;;
46363;SDS011;32071;49.036;9.344;2023-05-07T05:25:56;5.30;;;4.33;;
46363;SDS011;32071;49.036;9.344;2023-05-07T05:28:22;4.70;;;4.20;;
46363;SDS011;32071;49.036;9.344;2023-05-07T05:30:48;5.10;;;4.00;;
46363;SDS011;32071;49.036;9.344;2023-05-07T05:33:14;6.97;;;4.63;;
46363;SDS011;32071;49.036;9.344;2023-05-07T05:35:40;5.00;;;4.43;;
46363;SDS011;32071;49.036;9.344;2023-05-07T05:38:06;4.93;;;4.43;;
46363;SDS011;32071;49.036;9.344;2023-05-07T05:40:31;4.50;;;4.10;;
46363;SDS011;32071;49.036;9.344;2023-05-07T05:42:58;6.03;;;4.40;;
46363;SDS011;32071;49.036;9.344;2023-05-07T05:45:24;4.70;;;4.30;;
46363;SDS011;32071;49.036;9.344;2023-05-07T05:47:49;4.47;;;3.80;;
46363;SDS011;32071;49.036;9.344;2023-05-07T05:50:15;4.27;;;3.90;;
46363;SDS011;32071;49.036;9.344;2023-05-07T05:52:40;4.13;;;3.83;;
46363;SDS011;32071;49.036;9.344;2023-05-07T05:55:07;6.37;;;4.03;;
46363;SDS011;32071;49.036;9.344;2023-05-07T05:57:33;4.20;;;3.80;;
46363;SDS011;32071;49.036;9.344;2023-05-07T05:59:59;4.60;;;4.20;;
46363;SDS011;32071;49.036;9.344;2023-05-07T06:02:25;4.93;;;4.03;;
46363;SDS011;32071;49.036;9.344;2023-05-07T06:04:51;4.67;;;4.00;;
46363;SDS011;32071;49.036;9.344;2023-05-07T06:07:16;4.50;;;4.10;;
46363;SDS011;32071;49.036;9.344;2023-05-07T06:09:42;4.80;;;4.17;;
46363;SDS011;32071;49.036;9.344;2023-05-07T06:12:07;4.83;;;4.37;;
46363;SDS011;32071;49.036;9.344;2023-05-07T06:14:33;4.27;;;3.30;;
46363;SDS011;32071;49.036;9.344;2023-05-07T06:16:58;4.20;;;3.80;;
46363;SDS011;32071;49.036;9.344;2023-05-07T06:19:24;4.03;;;3.73;;
46363;SDS011;32071;49.036;9.344;2023-05-07T06:21:51;4.00;;;3.60;;
46363;SDS011;32071;49.036;9.344;2023-05-07T06:24:17;4.20;;;3.80;;
46363;SDS011;32071;49.036;9.344;2023-05-07T06:26:42;5.40;;;4.07;;
46363;SDS011;32071;49.036;9.344;2023-05-07T06:29:08;4.80;;;4.13;;
46363;SDS011;32071;49.036;9.344;2023-05-07T06:31:33;3.90;;;3.60;;
46363;SDS011;32071;49.036;9.344;2023-05-07T06:33:59;4.10;;;3.80;;
46363;SDS011;32071;49.036;9.344;2023-05-07T06:36:27;4.50;;;4.10;;
46363;SDS011;32071;49.036;9.344;2023-05-07T06:38:53;4.53;;;4.20;;
46363;SDS011;32071;49.036;9.344;2023-05-07T06:41:18;5.47;;;4.93;;
46363;SDS011;32071;49.036;9.344;2023-05-07T06:43:45;5.90;;;5.40;;
46363;SDS011;32071;49.036;9.344;2023-05-07T06:46:10;5.93;;;4.87;;
46363;SDS011;32071;49.036;9.344;2023-05-07T06:48:36;6.40;;;4.40;;
46363;SDS011;32071;49.036;9.344;2023-05-07T06:51:02;3.13;;;2.90;;
46363;SDS011;32071;49.036;9.344;2023-05-07T06:53:27;4.80;;;3.90;;
46363;SDS011;32071;49.036;9.344;2023-05-07T06:55:54;4.47;;;3.40;;
46363;SDS011;32071;49.036;9.344;2023-05-07T06:58:20;3.30;;;3.00;;
46363;SDS011;32071;49.036;9.344;2023-05-07T07:00:45;3.23;;;3.03;;
46363;SDS011;32071;49.036;9.344;2023-05-07T07:03:11;3.83;;;3.50;;
46363;SDS011;32071;49.036;9.344;2023-05-07T07:05:36;5.30;;;3.70;;
46363;SDS011;32071;49.036;9.344;2023-05-07T07:08:02;6.23;;;4.00;;
46363;SDS011;32071;49.036;9.344;2023-05-07T07:10:28;3.70;;;3.40;;
46363;SDS011;32071;49.036;9.344;2023-05-07T07:12:53;3.30;;;2.90;;
46363;SDS011;32071;49.036;9.344;2023-05-07T07:15:19;3.37;;;3.10;;
46363;SDS011;32071;49.036;9.344;2023-05-07T07:17:45;2.90;;;2.70;;
46363;SDS011;32071;49.036;9.344;2023-05-07T07:20:11;3.33;;;3.03;;
46363;SDS011;32071;49.036;9.344;2023-05-07T07:22:37;3.47;;;3.17;;
46363;SDS011;32071;49.036;9.344;2023-05-07T07:25:02;3.20;;;3.00;;
46363;SDS011;32071;49.036;9.344;2023-05-07T07:27:28;3.07;;;2.87;;
46363;SDS011;32071;49.036;9.344;2023-05-07T07:29:54;3.17;;;2.90;;
46363;SDS011;32071;49.036;9.344;2023-05-07T07:32:19;3.30;;;3.00;;
46363;SDS011;32071;49.036;9.344;2023-05-07T07:34:45;3.90;;;3.13;;
46363;SDS011;32071;49.036;9.344;2023-05-07T07:37:10;3.33;;;3.10;;
46363;SDS011;32071;49.036;9.344;2023-05-07T07:39:36;3.53;;;3.20;;
46363;SDS011;32071;49.036;9.344;2023-05-07T07:42:02;4.77;;;3.30;;
46363;SDS011;32071;49.036;9.344;2023-05-07T07:44:28;3.47;;;3.17;;
46363;SDS011;32071;49.036;9.344;2023-05-07T07:46:53;2.77;;;2.57;;
46363;SDS011;32071;49.036;9.344;2023-05-07T07:49:19;3.40;;;3.10;;
46363;SDS011;32071;49.036;9.344;2023-05-07T07:51:45;5.90;;;3.30;;
46363;SDS011;32071;49.036;9.344;2023-05-07T07:54:10;3.53;;;3.23;;
46363;SDS011;32071;49.036;9.344;2023-05-07T07:56:36;3.17;;;2.97;;
46363;SDS011;32071;49.036;9.344;2023-05-07T07:59:01;3.50;;;3.20;;
46363;SDS011;32071;49.036;9.344;2023-05-07T08:01:30;3.30;;;3.10;;
46363;SDS011;32071;49.036;9.344;2023-05-07T08:03:56;3.43;;;3.00;;
46363;SDS011;32071;49.036;9.344;2023-05-07T08:06:23;3.57;;;3.27;;
46363;SDS011;32071;49.036;9.344;2023-05-07T08:08:50;3.40;;;3.10;;
46363;SDS011;32071;49.036;9.344;2023-05-07T08:11:16;3.23;;;3.00;;
46363;SDS011;32071;49.036;9.344;2023-05-07T08:13:42;3.63;;;3.30;;
46363;SDS011;32071;49.036;9.344;2023-05-07T08:16:08;6.00;;;3.70;;
46363;SDS011;32071;49.036;9.344;2023-05-07T08:18:33;3.33;;;3.07;;
46363;SDS011;32071;49.036;9.344;2023-05-07T08:20:59;3.73;;;3.30;;
46363;SDS011;32071;49.036;9.344;2023-05-07T08:23:26;3.70;;;3.40;;
46363;SDS011;32071;49.036;9.344;2023-05-07T08:25:51;4.03;;;3.13;;
46363;SDS011;32071;49.036;9.344;2023-05-07T08:28:17;3.50;;;3.20;;
46363;SDS011;32071;49.036;9.344;2023-05-07T08:30:42;3.97;;;3.57;;
46363;SDS011;32071;49.036;9.344;2023-05-07T08:33:08;3.97;;;3.57;;
46363;SDS011;32071;49.036;9.344;2023-05-07T08:35:34;3.50;;;3.20;;
46363;SDS011;32071;49.036;9.344;2023-05-07T08:38:00;3.27;;;3.07;;
46363;SDS011;32071;49.036;9.344;2023-05-07T08:40:26;3.20;;;2.90;;
46363;SDS011;32071;49.036;9.344;2023-05-07T08:42:52;3.50;;;3.30;;
46363;SDS011;32071;49.036;9.344;2023-05-07T08:45:19;7.00;;;3.57;;
46363;SDS011;32071;49.036;9.344;2023-05-07T08:47:54;3.10;;;2.90;;
46363;SDS011;32071;49.036;9.344;2023-05-07T08:50:23;3.27;;;3.07;;
46363;SDS011;32071;49.036;9.344;2023-05-07T08:52:49;3.27;;;2.97;;
46363;SDS011;32071;49.036;9.344;2023-05-07T08:55:15;3.30;;;3.10;;
46363;SDS011;32071;49.036;9.344;2023-05-07T08:57:40;3.40;;;3.10;;
46363;SDS011;32071;49.036;9.344;2023-05-07T09:00:06;3.50;;;3.30;;
46363;SDS011;32071;49.036;9.344;2023-05-07T09:02:32;3.80;;;3.50;;
46363;SDS011;32071;49.036;9.344;2023-05-07T09:04:59;3.53;;;3.23;;
46363;SDS011;32071;49.036;9.344;2023-05-07T09:07:25;3.90;;;3.10;;
46363;SDS011;32071;49.036;9.344;2023-05-07T09:09:51;3.10;;;2.90;;
46363;SDS011;32071;49.036;9.344;2023-05-07T09:12:17;3.30;;;3.10;;
46363;SDS011;32071;49.036;9.344;2023-05-07T09:14:43;2.97;;;2.77;;
46363;SDS011;32071;49.036;9.344;2023-05-07T09:17:09;3.53;;;3.20;;
46363;SDS011;32071;49.036;9.344;2023-05-07T09:19:35;3.50;;;3.30;;
46363;SDS011;32071;49.036;9.344;2023-05-07T09:22:01;3.67;;;3.37;;
46363;SDS011;32071;49.036;9.344;2023-05-07T09:24:28;3.67;;;3.37;;
46363;SDS011;32071;49.036;9.344;2023-05-07T09:26:58;3.80;;;3.50;;
46363;SDS011;32071;49.036;9.344;2023-05-07T09:29:25;3.43;;;3.23;;
46363;SDS011;32071;49.036;9.344;2023-05-07T09:31:50;3.13;;;2.93;;
46363;SDS011;32071;49.036;9.344;2023-05-07T09:34:16;4.17;;;3.87;;
46363;SDS011;32071;49.036;9.344;2023-05-07T09:36:41;3.10;;;2.90;;
46363;SDS011;32071;49.036;9.344;2023-05-07T09:39:07;4.83;;;3.10;;
46363;SDS011;32071;49.036;9.344;2023-05-07T09:41:33;4.57;;;3.13;;
46363;SDS011;32071;49.036;9.344;2023-05-07T09:44:08;3.47;;;3.20;;
46363;SDS011;32071;49.036;9.344;2023-05-07T09:46:34;3.53;;;2.83;;
46363;SDS011;32071;49.036;9.344;2023-05-07T09:49:03;3.37;;;3.10;;
46363;SDS011;32071;49.036;9.344;2023-05-07T09:51:35;2.97;;;2.77;;
46363;SDS011;32071;49.036;9.344;2023-05-07T09:54:12;3.20;;;2.90;;
46363;SDS011;32071;49.036;9.344;2023-05-07T09:56:38;3.47;;;3.17;;
46363;SDS011;32071;49.036;9.344;2023-05-07T09:59:07;3.30;;;3.10;;
46363;SDS011;32071;49.036;9.344;2023-05-07T10:01:36;3.67;;;3.20;;
46363;SDS011;32071;49.036;9.344;2023-05-07T10:04:02;3.47;;;3.17;;
46363;SDS011;32071;49.036;9.344;2023-05-07T10:06:33;3.27;;;3.07;;
46363;SDS011;32071;49.036;9.344;2023-05-07T10:09:00;3.80;;;3.50;;
46363;SDS011;32071;49.036;9.344;2023-05-07T10:11:26;3.17;;;2.97;;
46363;SDS011;32071;49.036;9.344;2023-05-07T10:13:53;4.03;;;3.63;;
46363;SDS011;32071;49.036;9.344;2023-05-07T10:16:19;3.63;;;3.30;;
46363;SDS011;32071;49.036;9.344;2023-05-07T10:18:45;3.70;;;3.40;;
46363;SDS011;32071;49.036;9.344;2023-05-07T10:21:18;4.10;;;3.73;;
46363;SDS011;32071;49.036;9.344;2023-05-07T10:23:45;3.77;;;3.47;;
46363;SDS011;32071;49.036;9.344;2023-05-07T10:26:22;3.27;;;2.97;;
46363;SDS011;32071;49.036;9.344;2023-05-07T10:28:51;3.73;;;3.30;;
46363;SDS011;32071;49.036;9.344;2023-05-07T10:34:12;5.40;;;3.23;;
46363;SDS011;32071;49.036;9.344;2023-05-07T10:36:42;3.50;;;3.10;;
46363;SDS011;32071;49.036;9.344;2023-05-07T10:39:10;3.87;;;3.57;;
46363;SDS011;32071;49.036;9.344;2023-05-07T10:41:36;4.00;;;3.30;;
46363;SDS011;32071;49.036;9.344;2023-05-07T10:44:01;3.30;;;3.10;;
46363;SDS011;32071;49.036;9.344;2023-05-07T10:46:28;3.60;;;3.40;;
46363;SDS011;32071;49.036;9.344;2023-05-07T10:51:27;3.87;;;3.13;;
46363;SDS011;32071;49.036;9.344;2023-05-07T10:56:41;4.77;;;3.30;;
46363;SDS011;32071;49.036;9.344;2023-05-07T11:01:55;3.50;;;3.30;;
46363;SDS011;32071;49.036;9.344;2023-05-07T11:04:23;4.13;;;3.60;;
46363;SDS011;32071;49.036;9.344;2023-05-07T11:15:01;4.10;;;3.80;;
46363;SDS011;32071;49.036;9.344;2023-05-07T11:17:28;4.00;;;3.03;;
46363;SDS011;32071;49.036;9.344;2023-05-07T11:19:57;4.10;;;3.83;;
46363;SDS011;32071;49.036;9.344;2023-05-07T11:25:04;3.83;;;3.53;;
46363;SDS011;32071;49.036;9.344;2023-05-07T11:27:31;3.70;;;3.43;;
46363;SDS011;32071;49.036;9.344;2023-05-07T11:29:58;4.20;;;3.40;;
46363;SDS011;32071;49.036;9.344;2023-05-07T11:32:26;3.63;;;3.37;;
46363;SDS011;32071;49.036;9.344;2023-05-07T11:34:54;6.07;;;3.73;;
46363;SDS011;32071;49.036;9.344;2023-05-07T11:37:21;4.33;;;3.73;;
46363;SDS011;32071;49.036;9.344;2023-05-07T11:39:47;3.77;;;3.47;;
46363;SDS011;32071;49.036;9.344;2023-05-07T11:42:27;3.53;;;3.23;;
46363;SDS011;32071;49.036;9.344;2023-05-07T11:44:53;3.60;;;3.40;;
46363;SDS011;32071;49.036;9.344;2023-05-07T11:47:20;3.60;;;3.40;;
46363;SDS011;32071;49.036;9.344;2023-05-07T11:49:51;4.00;;;3.70;;
46363;SDS011;32071;49.036;9.344;2023-05-07T11:52:18;3.37;;;3.17;;
46363;SDS011;32071;49.036;9.344;2023-05-07T11:54:52;3.77;;;3.43;;
46363;SDS011;32071;49.036;9.344;2023-05-07T11:57:19;3.20;;;3.00;;
46363;SDS011;32071;49.036;9.344;2023-05-07T11:59:45;3.60;;;3.30;;
46363;SDS011;32071;49.036;9.344;2023-05-07T12:02:16;4.00;;;3.70;;
46363;SDS011;32071;49.036;9.344;2023-05-07T12:04:43;3.57;;;3.37;;
46363;SDS011;32071;49.036;9.344;2023-05-07T12:07:12;2.97;;;2.77;;
46363;SDS011;32071;49.036;9.344;2023-05-07T12:09:41;3.70;;;3.43;;
46363;SDS011;32071;49.036;9.344;2023-05-07T12:12:07;3.50;;;3.30;;
46363;SDS011;32071;49.036;9.344;2023-05-07T12:14:37;3.20;;;3.00;;
46363;SDS011;32071;49.036;9.344;2023-05-07T12:17:10;3.40;;;3.10;;
46363;SDS011;32071;49.036;9.344;2023-05-07T12:19:37;3.33;;;3.07;;
46363;SDS011;32071;49.036;9.344;2023-05-07T12:22:04;3.73;;;3.40;;
46363;SDS011;32071;49.036;9.344;2023-05-07T12:24:46;3.43;;;3.13;;
46363;SDS011;32071;49.036;9.344;2023-05-07T12:27:16;3.27;;;3.07;;
46363;SDS011;32071;49.036;9.344;2023-05-07T12:29:50;3.33;;;3.13;;
46363;SDS011;32071;49.036;9.344;2023-05-07T12:32:19;3.37;;;3.07;;
46363;SDS011;32071;49.036;9.344;2023-05-07T12:34:46;3.37;;;3.10;;
46363;SDS011;32071;49.036;9.344;2023-05-07T12:37:14;3.10;;;2.90;;
46363;SDS011;32071;49.036;9.344;2023-05-07T12:42:37;3.27;;;3.07;;
46363;SDS011;32071;49.036;9.344;2023-05-07T12:45:11;3.90;;;3.60;;
46363;SDS011;32071;49.036;9.344;2023-05-07T12:47:37;4.10;;;3.40;;
46363;SDS011;32071;49.036;9.344;2023-05-07T12:50:05;5.63;;;3.80;;
46363;SDS011;32071;49.036;9.344;2023-05-07T12:52:31;3.73;;;3.27;;
46363;SDS011;32071;49.036;9.344;2023-05-07T12:55:03;4.30;;;3.40;;
46363;SDS011;32071;49.036;9.344;2023-05-07T12:57:40;3.40;;;3.20;;
46363;SDS011;32071;49.036;9.344;2023-05-07T13:00:12;3.57;;;3.27;;
46363;SDS011;32071;49.036;9.344;2023-05-07T13:02:39;3.47;;;3.27;;
46363;SDS011;32071;49.036;9.344;2023-05-07T13:05:05;3.57;;;3.37;;
46363;SDS011;32071;49.036;9.344;2023-05-07T13:07:31;3.27;;;2.97;;
46363;SDS011;32071;49.036;9.344;2023-05-07T13:09:57;3.73;;;3.40;;
46363;SDS011;32071;49.036;9.344;2023-05-07T13:12:23;5.57;;;2.97;;
46363;SDS011;32071;49.036;9.344;2023-05-07T13:14:48;3.50;;;3.30;;
46363;SDS011;32071;49.036;9.344;2023-05-07T13:17:14;6.03;;;3.23;;
46363;SDS011;32071;49.036;9.344;2023-05-07T13:19:39;3.40;;;3.20;;
46363;SDS011;32071;49.036;9.344;2023-05-07T13:22:05;3.60;;;3.27;;
46363;SDS011;32071;49.036;9.344;2023-05-07T13:24:30;3.37;;;3.07;;
46363;SDS011;32071;49.036;9.344;2023-05-07T13:26:56;5.63;;;3.10;;
46363;SDS011;32071;49.036;9.344;2023-05-07T13:29:21;3.10;;;2.90;;
46363;SDS011;32071;49.036;9.344;2023-05-07T13:31:53;6.23;;;3.80;;
46363;SDS011;32071;49.036;9.344;2023-05-07T13:34:20;3.80;;;3.50;;
46363;SDS011;32071;49.036;9.344;2023-05-07T13:36:46;3.63;;;3.37;;
46363;SDS011;32071;49.036;9.344;2023-05-07T13:39:11;4.43;;;3.67;;
46363;SDS011;32071;49.036;9.344;2023-05-07T13:41:37;3.90;;;3.50;;
46363;SDS011;32071;49.036;9.344;2023-05-07T13:44:03;3.40;;;3.10;;
46363;SDS011;32071;49.036;9.344;2023-05-07T13:46:29;3.53;;;3.23;;
46363;SDS011;32071;49.036;9.344;2023-05-07T13:48:54;3.10;;;2.90;;
46363;SDS011;32071;49.036;9.344;2023-05-07T13:51:20;3.23;;;2.87;;
46363;SDS011;32071;49.036;9.344;2023-05-07T13:53:46;3.50;;;3.20;;
46363;SDS011;32071;49.036;9.344;2023-05-07T13:56:12;3.07;;;2.87;;
46363;SDS011;32071;49.036;9.344;2023-05-07T13:58:37;3.23;;;2.83;;
46363;SDS011;32071;49.036;9.344;2023-05-07T14:01:03;2.83;;;2.63;;
46363;SDS011;32071;49.036;9.344;2023-05-07T14:03:29;3.23;;;2.93;;
46363;SDS011;32071;49.036;9.344;2023-05-07T14:05:56;2.90;;;2.67;;
46363;SDS011;32071;49.036;9.344;2023-05-07T14:08:22;3.40;;;2.90;;
46363;SDS011;32071;49.036;9.344;2023-05-07T14:10:48;3.77;;;3.47;;
46363;SDS011;32071;49.036;9.344;2023-05-07T14:13:14;3.73;;;3.10;;
46363;SDS011;32071;49.036;9.344;2023-05-07T14:15:39;3.03;;;2.83;;
46363;SDS011;32071;49.036;9.344;2023-05-07T14:18:05;3.90;;;3.60;;
46363;SDS011;32071;49.036;9.344;2023-05-07T14:20:31;3.70;;;3.40;;
46363;SDS011;32071;49.036;9.344;2023-05-07T14:22:57;4.67;;;3.70;;
46363;SDS011;32071;49.036;9.344;2023-05-07T14:25:22;4.10;;;3.70;;
46363;SDS011;32071;49.036;9.344;2023-05-07T14:27:48;3.60;;;3.30;;
46363;SDS011;32071;49.036;9.344;2023-05-07T14:30:13;3.33;;;3.03;;
46363;SDS011;32071;49.036;9.344;2023-05-07T14:32:39;3.47;;;3.17;;
46363;SDS011;32071;49.036;9.344;2023-05-07T14:35:04;2.93;;;2.73;;
46363;SDS011;32071;49.036;9.344;2023-05-07T14:37:30;3.80;;;2.60;;
46363;SDS011;32071;49.036;9.344;2023-05-07T14:39:56;2.40;;;2.20;;
46363;SDS011;32071;49.036;9.344;2023-05-07T14:42:21;2.87;;;2.67;;
46363;SDS011;32071;49.036;9.344;2023-05-07T14:44:47;2.90;;;2.60;;
46363;SDS011;32071;49.036;9.344;2023-05-07T14:47:13;2.60;;;2.40;;
46363;SDS011;32071;49.036;9.344;2023-05-07T14:49:38;6.03;;;2.70;;
46363;SDS011;32071;49.036;9.344;2023-05-07T14:52:05;3.53;;;3.23;;
46363;SDS011;32071;49.036;9.344;2023-05-07T14:54:33;3.60;;;2.97;;
46363;SDS011;32071;49.036;9.344;2023-05-07T14:57:00;7.13;;;3.57;;
46363;SDS011;32071;49.036;9.344;2023-05-07T14:59:26;3.70;;;3.37;;
46363;SDS011;32071;49.036;9.344;2023-05-07T15:01:52;3.70;;;3.40;;
46363;SDS011;32071;49.036;9.344;2023-05-07T15:04:17;5.00;;;3.50;;
46363;SDS011;32071;49.036;9.344;2023-05-07T15:06:43;3.40;;;3.10;;
46363;SDS011;32071;49.036;9.344;2023-05-07T15:09:09;3.67;;;3.33;;
46363;SDS011;32071;49.036;9.344;2023-05-07T15:11:34;4.13;;;3.77;;